Time;durP1;ratioP1;P1;durP2;ratioP2;P2;SDS_P1;SDS_P2;PMS_P1;PMS_P2;Temp;Humidity;BMP_temperature;BMP_pressure;BME280_temperature;BME280_humidity;BME280_pressure;Samples;Min_cycle;Max_cycle;Signal;HPM_P1;HPM_P2
2021/11/30 00:00:48;;;;;;;21.93;13.90;;;;;;;1.37;93.60;100673.53;4959618;28;20193;-73
2021/11/30 00:03:14;;;;;;;22.60;14.60;;;;;;;1.36;94.13;100668.41;4954744;28;20193;-72
2021/11/30 00:05:39;;;;;;;22.93;14.03;;;;;;;1.43;93.41;100667.97;4954585;28;20189;-71
2021/11/30 00:08:05;;;;;;;23.93;14.63;;;;;;;1.44;94.18;100667.16;4954468;28;20951;-72
2021/11/30 00:10:44;;;;;;;23.27;13.83;;;;;;;1.46;94.07;100658.91;4954749;28;20221;-73
2021/11/30 00:13:20;;;;;;;22.73;13.47;;;;;;;1.49;94.43;100645.56;4954559;28;20568;-73
2021/11/30 00:15:48;;;;;;;21.40;13.83;;;;;;;1.50;93.65;100650.69;4952984;29;20211;-73
2021/11/30 00:18:14;;;;;;;22.30;14.40;;;;;;;1.50;93.19;100638.09;4954147;28;20191;-72
2021/11/30 00:20:42;;;;;;;22.63;14.17;;;;;;;1.53;93.96;100612.16;4954399;28;20227;-72
2021/11/30 00:23:09;;;;;;;23.93;15.03;;;;;;;1.55;93.67;100606.41;4954573;28;20235;-72
2021/11/30 00:25:35;;;;;;;25.30;14.13;;;;;;;1.54;93.19;100609.72;4954293;28;20193;-73
2021/11/30 00:28:02;;;;;;;23.80;15.37;;;;;;;1.57;93.17;100619.97;4954208;28;20209;-73
2021/11/30 00:30:30;;;;;;;27.57;15.87;;;;;;;1.61;93.42;100619.31;4953042;29;20209;-72
2021/11/30 00:32:56;;;;;;;27.13;16.03;;;;;;;1.64;93.38;100608.50;4968991;28;20204;-72
2021/11/30 00:35:24;;;;;;;28.40;18.07;;;;;;;1.64;94.24;100611.03;4955635;28;20189;-73
2021/11/30 00:37:50;;;;;;;31.60;17.50;;;;;;;1.67;94.44;100589.38;4954091;28;20578;-72
2021/11/30 00:40:17;;;;;;;32.63;18.47;;;;;;;1.71;94.80;100592.91;4953955;28;20189;-72
2021/11/30 00:42:43;;;;;;;29.13;17.37;;;;;;;1.73;93.93;100584.63;4954257;28;20212;-72
2021/11/30 00:45:13;;;;;;;28.47;16.97;;;;;;;1.74;94.10;100578.78;4953853;28;20189;-72
2021/11/30 00:47:45;;;;;;;27.53;16.73;;;;;;;1.81;94.09;100578.31;4954212;28;20235;-72
2021/11/30 00:50:12;;;;;;;31.87;18.30;;;;;;;1.82;93.92;100580.03;4953615;28;20217;-72
2021/11/30 00:52:38;;;;;;;27.50;16.93;;;;;;;1.85;94.18;100569.22;4954023;28;20220;-72
2021/11/30 00:55:05;;;;;;;34.90;18.37;;;;;;;1.91;94.57;100570.38;4953831;28;20185;-72
2021/11/30 00:57:31;;;;;;;28.90;17.17;;;;;;;1.92;94.53;100564.53;4954082;28;20576;-73
2021/11/30 00:59:56;;;;;;;31.30;18.20;;;;;;;1.98;94.90;100553.88;4953410;28;20204;-72
2021/11/30 01:02:22;;;;;;;31.80;18.10;;;;;;;2.18;94.81;100548.13;4954070;28;20209;-72
2021/11/30 01:04:48;;;;;;;36.33;19.47;;;;;;;2.25;95.03;100545.94;4953621;28;20660;-72
2021/11/30 01:07:14;;;;;;;34.97;19.10;;;;;;;2.33;95.09;100546.28;4953829;28;20181;-72
2021/11/30 01:09:42;;;;;;;33.37;19.37;;;;;;;2.39;94.08;100533.97;4953101;28;20224;-72
2021/11/30 01:12:08;;;;;;;34.50;19.53;;;;;;;2.46;94.07;100526.75;4953704;28;20686;-72
2021/11/30 01:14:34;;;;;;;32.27;19.67;;;;;;;2.49;94.57;100528.53;4953555;28;20189;-72
2021/11/30 01:17:00;;;;;;;32.47;20.07;;;;;;;2.57;94.28;100520.50;4953729;28;20280;-73
2021/11/30 01:19:25;;;;;;;33.87;19.50;;;;;;;2.57;94.68;100515.47;4952724;28;20666;-72
2021/11/30 01:21:52;;;;;;;35.30;20.33;;;;;;;2.60;94.30;100513.06;4952044;28;20216;-72
2021/11/30 01:24:18;;;;;;;36.57;20.50;;;;;;;2.68;94.01;100508.38;4952149;29;20189;-73
2021/11/30 01:26:44;;;;;;;31.37;18.90;;;;;;;2.74;93.59;100506.09;4953298;28;20572;-73
2021/11/30 01:29:09;;;;;;;30.63;19.43;;;;;;;2.73;93.94;100487.56;4952690;28;20209;-72
2021/11/30 01:31:35;;;;;;;31.67;19.50;;;;;;;2.77;93.53;100486.91;4953434;28;20702;-72
2021/11/30 01:34:01;;;;;;;29.77;18.33;;;;;;;2.82;94.05;100472.81;4952960;28;20232;-72
2021/11/30 01:36:26;;;;;;;29.83;19.30;;;;;;;2.84;93.94;100460.19;4953075;28;21024;-72
2021/11/30 01:38:52;;;;;;;32.43;18.77;;;;;;;2.86;92.90;100454.44;4952720;28;20208;-72
2021/11/30 01:41:18;;;;;;;32.70;19.67;;;;;;;2.96;93.92;100454.03;4953082;28;20209;-72
2021/11/30 01:43:44;;;;;;;31.23;19.60;;;;;;;2.97;92.99;100448.19;4953040;28;20211;-72
2021/11/30 01:46:26;;;;;;;31.57;18.73;;;;;;;2.98;93.76;100446.50;4952777;28;20745;-72
2021/11/30 01:51:35;;;;;;;29.07;18.33;;;;;;;3.03;93.50;100447.59;4953076;28;20201;-71
2021/11/30 01:54:01;;;;;;;30.27;18.50;;;;;;;3.09;93.66;100452.88;4952414;29;20216;-72
2021/11/30 01:56:27;;;;;;;34.53;19.87;;;;;;;3.09;93.55;100430.97;4962305;28;20204;-73
2021/11/30 01:58:53;;;;;;;32.67;20.80;;;;;;;3.12;93.38;100420.16;4972041;28;20672;-72
2021/11/30 02:01:19;;;;;;;31.43;19.90;;;;;;;3.17;92.67;100417.00;4970887;28;20212;-72
2021/11/30 02:03:45;;;;;;;30.43;18.87;;;;;;;3.17;92.76;100406.88;4952424;28;20606;-72
2021/11/30 02:06:11;;;;;;;28.43;18.13;;;;;;;3.21;92.80;100400.28;4952501;28;20193;-73
2021/11/30 02:08:37;;;;;;;28.67;18.87;;;;;;;3.24;92.88;100398.75;4952228;28;20248;-72
2021/11/30 02:11:03;;;;;;;28.07;18.27;;;;;;;3.25;93.28;100395.41;4952559;28;20807;-72
2021/11/30 02:13:30;;;;;;;30.33;19.40;;;;;;;3.27;92.94;100400.53;4951171;29;20181;-72
2021/11/30 02:15:58;;;;;;;28.20;19.13;;;;;;;3.32;92.72;100401.59;4951690;28;20243;-72
2021/11/30 02:18:24;;;;;;;27.50;18.17;;;;;;;3.34;92.39;100390.72;4952479;28;20205;-73
2021/11/30 02:20:58;;;;;;;26.07;16.73;;;;;;;3.37;92.67;100374.81;4952282;28;20231;-72
2021/11/30 02:23:38;;;;;;;27.73;18.27;;;;;;;3.35;92.67;100386.53;4951922;28;20193;-73
2021/11/30 02:26:11;;;;;;;28.03;17.93;;;;;;;3.32;92.86;100382.19;4951081;28;20701;-73
2021/11/30 02:28:39;;;;;;;24.57;15.93;;;;;;;3.31;92.79;100364.47;4951623;28;20193;-72
2021/11/30 02:31:06;;;;;;;21.60;15.70;;;;;;;3.28;92.52;100355.09;4952068;28;20268;-72
2021/11/30 02:33:31;;;;;;;24.90;17.10;;;;;;;3.26;93.05;100340.66;4951927;28;20549;-72
2021/11/30 02:35:57;;;;;;;24.10;16.47;;;;;;;3.26;93.15;100330.53;4952035;28;20192;-72
2021/11/30 02:38:23;;;;;;;24.20;15.47;;;;;;;3.25;93.13;100323.72;4951932;28;20237;-72
2021/11/30 02:40:49;;;;;;;24.97;16.03;;;;;;;3.24;92.88;100319.47;4951718;28;20634;-72
2021/11/30 02:43:14;;;;;;;22.23;14.97;;;;;;;3.24;93.34;100320.34;4961619;28;20841;-72
2021/11/30 02:45:40;;;;;;;20.07;14.63;;;;;;;3.25;93.19;100306.88;4971434;28;20212;-72
2021/11/30 02:48:06;;;;;;;20.80;14.07;;;;;;;3.25;92.72;100295.91;4955023;28;20706;-72
2021/11/30 02:50:39;;;;;;;21.33;14.50;;;;;;;3.22;93.18;100286.53;4951865;28;20236;-73
2021/11/30 02:53:06;;;;;;;20.67;13.47;;;;;;;3.24;92.05;100284.06;4952024;29;20169;-72
2021/11/30 02:55:33;;;;;;;19.90;13.97;;;;;;;3.24;92.64;100264.69;4951769;28;20563;-72
2021/11/30 02:57:58;;;;;;;17.20;12.97;;;;;;;3.23;92.53;100254.53;4951404;28;20189;-73
2021/11/30 03:00:24;;;;;;;18.13;12.43;;;;;;;3.26;92.24;100252.97;4965807;28;20696;-73
2021/11/30 03:02:50;;;;;;;16.77;11.90;;;;;;;3.27;92.08;100249.63;4970226;28;20574;-72
2021/11/30 03:05:15;;;;;;;16.67;11.87;;;;;;;3.24;92.40;100229.28;4951451;28;20536;-72
2021/11/30 03:07:41;;;;;;;14.00;11.43;;;;;;;3.25;92.25;100231.00;4951832;28;20268;-72
2021/11/30 03:10:14;;;;;;;15.63;11.60;;;;;;;3.28;92.15;100226.06;4951190;28;20308;-71
2021/11/30 03:12:40;;;;;;;14.90;11.20;;;;;;;3.29;91.46;100207.56;4951759;28;20568;-72
2021/11/30 03:15:09;;;;;;;13.77;9.67;;;;;;;3.31;91.80;100197.50;4951330;28;20193;-71
2021/11/30 03:17:35;;;;;;;16.17;11.00;;;;;;;3.31;91.33;100189.91;4951552;29;20268;-71
2021/11/30 03:20:00;;;;;;;14.83;10.67;;;;;;;3.32;91.33;100195.00;4966047;28;20283;-72
2021/11/30 03:22:26;;;;;;;14.60;10.63;;;;;;;3.33;91.92;100185.75;4951518;28;20212;-72
2021/11/30 03:24:51;;;;;;;17.07;10.47;;;;;;;3.35;91.72;100171.53;4951449;28;20617;-72
2021/11/30 03:27:17;;;;;;;13.73;9.80;;;;;;;3.35;90.85;100169.84;4951627;28;20189;-72
2021/11/30 03:29:42;;;;;;;13.80;9.83;;;;;;;3.39;90.87;100155.63;4951222;28;20792;-72
2021/11/30 03:32:12;;;;;;;11.73;9.47;;;;;;;3.41;90.61;100144.75;4950730;28;20240;-72
2021/11/30 03:34:38;;;;;;;13.13;9.10;;;;;;;3.39;90.31;100135.38;4951453;28;20250;-72
2021/11/30 03:37:09;;;;;;;9.53;8.33;;;;;;;3.41;90.54;100123.66;4951599;28;20204;-73
2021/11/30 03:39:35;;;;;;;12.60;8.73;;;;;;;3.42;90.54;100121.19;4965826;28;20614;-72
2021/11/30 03:42:02;;;;;;;11.17;8.50;;;;;;;3.41;90.37;100099.22;4951133;28;20200;-72
2021/11/30 03:44:28;;;;;;;12.43;9.93;;;;;;;3.39;90.43;100092.38;4950004;29;20619;-72
2021/11/30 03:46:55;;;;;;;10.53;9.03;;;;;;;3.40;91.07;100082.31;4951194;29;20200;-72
2021/11/30 03:49:21;;;;;;;13.30;9.23;;;;;;;3.37;91.33;100068.72;4951005;28;20693;-73
2021/11/30 03:51:47;;;;;;;13.63;10.10;;;;;;;3.35;91.31;100065.28;4951270;28;20196;-72
2021/11/30 03:54:14;;;;;;;13.67;9.50;;;;;;;3.32;91.93;100050.81;4950909;28;20185;-72
2021/11/30 03:56:39;;;;;;;14.87;10.90;;;;;;;3.28;92.02;100035.50;4950904;28;20232;-72
2021/11/30 03:59:05;;;;;;;14.93;11.40;;;;;;;3.27;92.57;100023.66;4950753;28;20204;-72
2021/11/30 04:01:31;;;;;;;13.07;10.70;;;;;;;3.25;92.64;100021.09;4950935;28;20205;-72
2021/11/30 04:03:57;;;;;;;16.23;11.67;;;;;;;3.25;93.29;99994.91;4950819;28;20198;-72
2021/11/30 04:06:23;;;;;;;14.17;11.73;;;;;;;3.24;92.93;100003.31;4950839;28;20663;-72
2021/11/30 04:08:50;;;;;;;14.97;11.57;;;;;;;3.22;93.38;99987.25;4950735;28;20599;-72
2021/11/30 04:11:17;;;;;;;12.67;10.63;;;;;;;3.22;92.99;99982.19;4951018;28;20205;-71
2021/11/30 04:13:42;;;;;;;15.47;11.13;;;;;;;3.19;93.32;99972.84;4950897;28;20686;-72
2021/11/30 04:16:08;;;;;;;12.67;10.37;;;;;;;3.19;93.61;99971.97;4950921;28;20184;-72
2021/11/30 04:18:34;;;;;;;14.00;11.40;;;;;;;3.18;94.08;99950.00;4950145;29;20647;-72
2021/11/30 04:20:59;;;;;;;15.93;11.10;;;;;;;3.16;93.50;99962.59;4951045;28;20217;-73
2021/11/30 04:23:26;;;;;;;14.10;12.27;;;;;;;3.18;93.90;99937.38;4950815;28;20655;-72
2021/11/30 04:25:51;;;;;;;13.37;11.90;;;;;;;3.17;94.32;99923.84;4951265;28;20225;-72
2021/11/30 04:28:17;;;;;;;13.40;11.83;;;;;;;3.17;94.33;99926.38;4950939;28;20250;-72
2021/11/30 04:30:43;;;;;;;12.97;11.03;;;;;;;3.18;94.47;99909.56;4951111;28;20216;-71
2021/11/30 04:33:08;;;;;;;12.90;10.20;;;;;;;3.16;94.63;99894.31;4950845;28;20193;-72
2021/11/30 04:35:34;;;;;;;11.27;9.33;;;;;;;3.15;94.00;99877.44;4951089;28;20200;-72
2021/11/30 04:37:59;;;;;;;13.07;10.43;;;;;;;3.18;94.30;99879.22;4950889;28;20201;-72
2021/11/30 04:40:25;;;;;;;8.80;7.90;;;;;;;3.21;94.62;99879.28;4954128;28;20185;-71
2021/11/30 04:42:50;;;;;;;10.77;9.63;;;;;;;3.21;94.78;99861.59;4954532;28;20224;-72
2021/11/30 04:45:28;;;;;;;9.73;8.73;;;;;;;3.21;94.47;99836.28;4952833;29;20208;-72
2021/11/30 04:47:56;;;;;;;8.93;8.03;;;;;;;3.23;93.93;99857.47;4954288;29;20173;-72
2021/11/30 04:50:25;;;;;;;7.70;6.93;;;;;;;3.29;93.66;99830.69;4953934;29;20685;-71
2021/11/30 04:52:52;;;;;;;7.83;7.03;;;;;;;3.30;94.08;99827.34;4953659;28;20205;-72
2021/11/30 04:55:22;;;;;;;9.33;7.83;;;;;;;3.28;93.96;99806.22;4950907;29;20189;-72
2021/11/30 04:57:58;;;;;;;7.47;6.77;;;;;;;3.31;93.75;99834.13;4954207;29;20188;-72
2021/11/30 05:00:24;;;;;;;8.77;6.77;;;;;;;3.33;93.34;99826.56;4953152;29;20240;-72
2021/11/30 05:02:50;;;;;;;8.13;6.47;;;;;;;3.32;93.32;99804.63;4968436;28;20240;-72
2021/11/30 05:05:15;;;;;;;7.63;6.93;;;;;;;3.33;93.86;99789.50;4953669;28;20681;-73
2021/11/30 05:07:41;;;;;;;7.23;6.53;;;;;;;3.34;93.65;99776.03;4953364;28;20185;-72
2021/11/30 05:10:09;;;;;;;7.90;7.10;;;;;;;3.34;94.03;99782.75;4951904;29;20773;-71
2021/11/30 05:12:34;;;;;;;7.60;6.67;;;;;;;3.34;93.63;99777.69;4953234;28;20209;-73
2021/11/30 05:15:00;;;;;;;7.50;6.80;;;;;;;3.37;93.57;99778.69;4985232;28;20196;-72
2021/11/30 05:17:25;;;;;;;7.30;6.33;;;;;;;3.40;93.24;99762.72;4969596;28;20268;-72
2021/11/30 05:19:51;;;;;;;7.00;6.30;;;;;;;3.40;93.59;99750.09;4953460;28;20666;-72
2021/11/30 05:22:17;;;;;;;7.13;5.70;;;;;;;3.40;93.47;99758.50;4953607;28;20559;-72
2021/11/30 05:24:42;;;;;;;7.07;5.77;;;;;;;3.40;93.58;99758.50;4953655;28;20794;-72
2021/11/30 05:27:08;;;;;;;5.97;5.37;;;;;;;3.43;93.52;99765.34;4953115;28;20193;-71
2021/11/30 05:29:34;;;;;;;7.27;5.90;;;;;;;3.40;94.57;99748.41;4956330;28;20223;-71
2021/11/30 05:32:00;;;;;;;6.33;5.73;;;;;;;3.41;94.23;99754.31;4972830;28;20212;-72
2021/11/30 05:34:25;;;;;;;6.87;6.27;;;;;;;3.41;95.12;99749.25;4972716;28;20212;-72
2021/11/30 05:36:51;;;;;;;5.97;5.40;;;;;;;3.41;95.10;99747.56;4972597;28;20181;-72
2021/11/30 05:39:16;;;;;;;6.37;5.77;;;;;;;3.44;94.64;99731.63;4987357;28;20406;-73
2021/11/30 05:41:42;;;;;;;5.57;4.90;;;;;;;3.45;95.36;99728.31;4972622;28;20291;-72
2021/11/30 05:44:07;;;;;;;6.17;5.30;;;;;;;3.46;94.96;99715.72;4972652;28;20188;-72
2021/11/30 05:46:35;;;;;;;6.90;5.43;;;;;;;3.48;94.92;99726.72;4987426;28;20184;-72
2021/11/30 05:49:03;;;;;;;6.53;5.87;;;;;;;3.53;95.07;99699.88;4972557;28;20609;-72
2021/11/30 05:51:28;;;;;;;6.07;5.40;;;;;;;3.54;97.00;99696.53;4958972;28;20232;-73
2021/11/30 05:53:54;;;;;;;7.70;6.23;;;;;;;3.55;97.64;99697.38;4953107;28;20227;-72
2021/11/30 05:56:20;;;;;;;7.60;6.80;;;;;;;3.57;97.39;99706.75;4952630;28;20638;-72
2021/11/30 05:58:46;;;;;;;7.03;6.33;;;;;;;3.61;97.14;99700.94;4952866;28;20189;-72
2021/11/30 06:01:55;;;;;;;7.80;7.03;;;;;;;3.63;96.27;99684.13;4952352;28;20715;-72
2021/11/30 06:04:01;;;;;;;7.37;6.63;;;;;;;3.68;95.49;99699.47;4957070;28;20205;-72
2021/11/30 06:06:34;;;;;;;6.77;6.17;;;;;;;3.68;96.03;99675.00;4951683;29;20236;-72
2021/11/30 06:09:03;;;;;;;7.60;6.47;;;;;;;3.69;96.11;99661.50;4952501;29;20240;-72
2021/11/30 06:11:28;;;;;;;7.87;6.70;;;;;;;3.71;95.54;99659.91;4952283;28;20208;-72
2021/11/30 06:13:54;;;;;;;9.77;7.47;;;;;;;3.75;95.63;99654.09;4952184;28;20201;-72
2021/11/30 06:16:20;;;;;;;9.57;8.57;;;;;;;3.75;95.41;99630.44;4952349;28;20721;-73
2021/11/30 06:18:46;;;;;;;9.37;8.37;;;;;;;3.76;95.91;99633.03;4952374;28;20196;-72
2021/11/30 06:21:13;;;;;;;11.07;8.67;;;;;;;3.78;95.81;99650.78;4952567;28;20209;-73
2021/11/30 06:23:40;;;;;;;10.63;9.10;;;;;;;3.80;96.13;99647.50;4966946;28;20189;-73
2021/11/30 06:26:08;;;;;;;10.07;8.97;;;;;;;3.81;95.92;99659.31;4952474;28;20205;-72
2021/11/30 06:28:34;;;;;;;9.40;8.30;;;;;;;3.86;95.76;99642.56;4952146;28;20320;-73
2021/11/30 06:31:00;;;;;;;8.50;7.20;;;;;;;3.94;95.73;99643.63;4952246;28;20280;-73
2021/11/30 06:33:25;;;;;;;9.50;8.50;;;;;;;3.95;95.69;99624.25;4966535;28;20189;-72
2021/11/30 06:35:51;;;;;;;11.10;9.90;;;;;;;3.99;95.52;99639.56;4966989;28;20212;-72
2021/11/30 06:38:16;;;;;;;12.67;10.17;;;;;;;3.99;95.69;99634.47;4952002;28;20185;-73
2021/11/30 06:40:42;;;;;;;11.40;10.17;;;;;;;4.05;96.16;99631.25;4952099;28;20181;-72
2021/11/30 06:43:08;;;;;;;11.57;9.97;;;;;;;4.08;96.08;99626.25;4951894;28;20212;-72
2021/11/30 06:45:33;;;;;;;11.13;9.90;;;;;;;4.12;95.72;99625.50;4952055;29;20200;-72
2021/11/30 06:47:59;;;;;;;13.40;11.07;;;;;;;4.11;95.92;99637.34;4951919;29;20177;-72
2021/11/30 06:50:24;;;;;;;13.97;12.00;;;;;;;4.12;96.08;99635.66;4950741;29;20220;-73
2021/11/30 06:52:51;;;;;;;13.73;12.27;;;;;;;4.17;96.52;99627.34;4951393;28;20693;-73
2021/11/30 06:55:17;;;;;;;14.93;12.47;;;;;;;4.19;96.52;99638.38;4951984;28;20217;-72
2021/11/30 06:57:42;;;;;;;13.47;11.73;;;;;;;4.24;96.61;99666.34;4952031;28;20709;-72
2021/11/30 07:00:10;;;;;;;14.30;12.77;;;;;;;4.27;96.98;99659.69;4951367;28;20180;-73
2021/11/30 07:02:36;;;;;;;16.30;13.67;;;;;;;4.32;97.05;99637.00;4951494;28;20712;-73
2021/11/30 07:08:00;;;;;;;15.20;13.60;;;;;;;4.41;97.35;99640.59;4951852;28;20283;-72
2021/11/30 07:15:31;;;;;;;17.30;14.10;;;;;;;4.58;97.31;99643.53;4951662;28;20177;-73
2021/11/30 07:17:58;;;;;;;17.83;14.50;;;;;;;4.61;97.33;99638.56;4951434;28;20268;-72
2021/11/30 07:20:24;;;;;;;17.67;15.37;;;;;;;4.67;97.29;99641.22;4951124;28;20197;-73
2021/11/30 07:22:53;;;;;;;18.90;14.50;;;;;;;4.73;97.95;99628.66;4951494;28;20304;-73
2021/11/30 07:25:18;;;;;;;17.53;14.60;;;;;;;4.77;97.87;99641.47;4951529;28;20741;-72
2021/11/30 07:27:44;;;;;;;16.53;13.63;;;;;;;4.79;97.55;99633.91;4951493;28;20189;-72
2021/11/30 07:30:09;;;;;;;18.87;14.40;;;;;;;4.81;97.90;99634.78;4951048;28;20213;-72
2021/11/30 07:32:35;;;;;;;18.10;13.77;;;;;;;4.84;97.97;99639.94;4951427;28;20201;-73
2021/11/30 07:35:05;;;;;;;17.27;13.43;;;;;;;4.89;98.06;99638.34;4951366;28;20204;-73
2021/11/30 07:37:30;;;;;;;14.67;11.57;;;;;;;4.95;98.55;99635.94;4951402;28;20659;-73
2021/11/30 07:39:56;;;;;;;14.77;11.90;;;;;;;5.02;98.40;99635.25;4950989;28;20196;-73
2021/11/30 07:42:24;;;;;;;15.40;11.50;;;;;;;5.06;97.88;99637.03;4951373;28;20209;-73
2021/11/30 07:44:49;;;;;;;14.20;10.27;;;;;;;5.16;98.04;99623.72;4951409;28;20192;-73
2021/11/30 07:47:15;;;;;;;12.73;9.60;;;;;;;5.23;98.35;99628.09;4951097;28;20631;-73
2021/11/30 07:49:40;;;;;;;10.93;7.30;;;;;;;5.31;98.17;99631.66;4965683;28;20280;-73
2021/11/30 07:52:07;;;;;;;11.97;6.17;;;;;;;5.41;98.23;99623.38;4951059;28;20308;-73
2021/11/30 07:54:33;;;;;;;8.53;5.47;;;;;;;5.47;98.41;99626.91;4951080;28;20193;-73
2021/11/30 07:56:58;;;;;;;15.37;6.00;;;;;;;5.57;98.41;99631.31;4951208;29;20285;-73
2021/11/30 07:59:24;;;;;;;9.47;5.33;;;;;;;5.65;98.47;99626.38;4951112;29;20373;-73
2021/11/30 08:01:49;;;;;;;8.97;4.40;;;;;;;5.74;97.63;99624.03;4949524;29;20698;-73
2021/11/30 08:04:15;;;;;;;10.73;3.50;;;;;;;5.81;97.49;99619.13;4951034;29;20187;-73
2021/11/30 08:06:40;;;;;;;10.90;2.80;;;;;;;5.88;97.33;99623.50;4951112;29;20178;-73
2021/11/30 08:09:08;;;;;;;8.97;3.27;;;;;;;5.92;97.41;99604.06;4951066;29;20653;-73
2021/11/30 08:11:33;;;;;;;9.90;3.20;;;;;;;5.98;97.04;99627.91;4950790;28;20205;-73
2021/11/30 08:13:59;;;;;;;6.40;2.50;;;;;;;6.06;95.83;99620.41;4952249;28;20196;-72
2021/11/30 08:16:26;;;;;;;7.53;2.63;;;;;;;6.08;95.64;99618.78;4938104;29;20197;-73
2021/11/30 08:18:51;;;;;;;9.07;2.40;;;;;;;6.10;95.34;99606.94;4954621;28;20717;-73
2021/11/30 08:21:17;;;;;;;10.07;2.87;;;;;;;6.14;95.06;99612.09;4954433;28;20217;-73
2021/11/30 08:23:42;;;;;;;6.17;2.63;;;;;;;6.19;94.60;99613.03;4953598;29;20247;-73
2021/11/30 08:26:12;;;;;;;10.67;3.00;;;;;;;6.23;93.90;99603.78;4954737;29;20236;-73
2021/11/30 08:28:37;;;;;;;11.13;2.73;;;;;;;6.30;93.44;99616.59;4953182;29;20197;-73
2021/11/30 08:31:03;;;;;;;12.70;2.30;;;;;;;6.34;94.10;99617.50;4954152;28;20223;-73
2021/11/30 08:33:29;;;;;;;15.13;2.67;;;;;;;6.37;92.74;99608.25;4954418;29;20193;-72
2021/11/30 08:35:56;;;;;;;11.67;2.83;;;;;;;6.37;93.48;99604.84;4954426;29;20287;-73
2021/11/30 08:38:22;;;;;;;10.60;2.40;;;;;;;6.39;92.59;99605.72;4954255;29;20827;-73
2021/11/30 08:40:47;;;;;;;11.70;2.73;;;;;;;6.43;92.17;99603.25;4954023;28;20287;-73
2021/11/30 08:43:13;;;;;;;16.60;2.97;;;;;;;6.43;91.36;99605.81;4954111;28;20192;-73
2021/11/30 08:45:39;;;;;;;13.10;3.30;;;;;;;6.51;90.44;99614.41;4954340;29;20220;-72
2021/11/30 08:48:05;;;;;;;14.47;3.20;;;;;;;6.54;90.25;99611.91;4954108;28;20192;-73
2021/11/30 08:50:31;;;;;;;12.50;2.73;;;;;;;6.58;90.24;99616.19;4954096;28;20275;-72
2021/11/30 08:52:56;;;;;;;9.67;2.33;;;;;;;6.67;89.25;99615.47;4953716;28;20205;-73
2021/11/30 08:55:22;;;;;;;20.67;2.53;;;;;;;6.68;89.17;99614.66;4954238;28;20639;-72
2021/11/30 08:57:48;;;;;;;14.33;2.67;;;;;;;6.67;88.63;99615.47;4953955;28;20193;-73
2021/11/30 09:00:26;;;;;;;14.70;3.63;;;;;;;6.65;89.47;99610.38;4954006;28;20227;-73
2021/11/30 09:02:52;;;;;;;19.47;3.37;;;;;;;6.63;90.00;99611.19;4953531;28;20208;-72
2021/11/30 09:05:20;;;;;;;15.17;2.90;;;;;;;6.65;90.05;99606.97;4953538;29;20228;-72
2021/11/30 09:07:46;;;;;;;19.30;3.60;;;;;;;6.65;89.25;99607.84;4953689;29;20192;-73
2021/11/30 09:10:12;;;;;;;18.13;3.50;;;;;;;6.70;89.77;99625.69;4952259;29;20213;-73
2021/11/30 09:12:38;;;;;;;19.83;4.50;;;;;;;6.73;89.43;99628.31;4953719;28;20252;-73
2021/11/30 09:15:08;;;;;;;16.17;3.33;;;;;;;6.77;88.48;99635.16;4953827;29;20617;-72
2021/11/30 09:17:37;;;;;;;14.40;3.57;;;;;;;6.75;89.08;99634.25;4952435;29;20196;-73
2021/11/30 09:20:05;;;;;;;19.60;3.53;;;;;;;6.75;89.04;99642.75;4953314;28;20221;-73
2021/11/30 09:22:31;;;;;;;19.30;3.83;;;;;;;6.77;88.80;99630.06;4952247;29;20308;-73
2021/11/30 09:24:58;;;;;;;13.23;3.27;;;;;;;6.79;89.90;99639.41;4953530;28;20196;-73
2021/11/30 09:27:25;;;;;;;15.30;4.07;;;;;;;6.78;88.38;99635.16;4953943;29;20207;-73
2021/11/30 09:29:52;;;;;;;20.33;3.77;;;;;;;6.76;88.46;99625.78;4953383;29;20216;-73
2021/11/30 09:32:18;;;;;;;18.07;3.20;;;;;;;6.75;86.79;99636.78;4952157;28;20213;-73
2021/11/30 09:34:43;;;;;;;18.43;3.40;;;;;;;6.73;86.96;99638.47;4953416;29;20670;-73
2021/11/30 09:37:10;;;;;;;16.27;2.60;;;;;;;6.72;87.21;99645.22;4953363;29;20177;-73
2021/11/30 09:39:35;;;;;;;11.30;2.63;;;;;;;6.78;85.23;99641.94;4952877;28;20178;-73
2021/11/30 09:42:03;;;;;;;13.83;2.47;;;;;;;6.82;84.75;99643.69;4953134;28;20236;-73
2021/11/30 09:44:32;;;;;;;14.80;2.90;;;;;;;6.84;84.91;99616.56;4953310;29;20216;-73
2021/11/30 09:47:00;;;;;;;12.57;2.70;;;;;;;6.84;83.71;99626.75;4951647;29;20263;-73
2021/11/30 09:49:27;;;;;;;15.40;3.20;;;;;;;6.82;83.58;99630.97;4952762;28;20209;-73
2021/11/30 09:51:52;;;;;;;16.57;3.77;;;;;;;6.82;84.62;99624.19;4967369;28;20679;-73
2021/11/30 09:54:18;;;;;;;13.93;3.00;;;;;;;6.82;84.23;99624.19;4953099;28;20204;-73
2021/11/30 09:56:43;;;;;;;18.60;3.80;;;;;;;6.85;83.76;99623.38;4952850;28;20189;-73
2021/11/30 09:59:09;;;;;;;12.53;3.00;;;;;;;6.91;83.97;99621.78;4952805;28;20185;-73
2021/11/30 10:01:35;;;;;;;14.73;3.20;;;;;;;6.94;84.14;99621.81;4953182;28;20336;-73
2021/11/30 10:04:03;;;;;;;17.23;3.33;;;;;;;6.96;82.41;99619.31;4967458;28;20189;-73
2021/11/30 10:06:29;;;;;;;16.90;3.17;;;;;;;7.03;82.92;99621.94;4952890;29;20177;-73
2021/11/30 10:08:56;;;;;;;17.90;4.00;;;;;;;7.03;82.38;99618.53;4951884;29;20196;-73
2021/11/30 10:11:40;;;;;;;22.80;3.70;;;;;;;7.02;81.91;99619.38;4952463;28;20205;-73
2021/11/30 10:14:13;;;;;;;17.87;3.10;;;;;;;7.00;82.58;99621.91;4952614;28;20275;-73
2021/11/30 10:16:41;;;;;;;15.90;3.40;;;;;;;6.94;82.96;99619.28;4952152;28;20197;-73
2021/11/30 10:19:07;;;;;;;24.23;3.53;;;;;;;6.96;83.55;99612.50;4952024;28;20212;-73
2021/11/30 10:21:33;;;;;;;15.03;3.50;;;;;;;7.01;83.62;99620.22;4952506;28;20209;-73
2021/11/30 10:24:03;;;;;;;18.47;2.77;;;;;;;7.05;84.49;99615.19;4952564;29;20650;-73
2021/11/30 10:26:37;;;;;;;15.97;2.93;;;;;;;7.09;84.49;99616.94;4952595;29;20169;-73
2021/11/30 10:29:04;;;;;;;19.77;4.17;;;;;;;7.16;83.59;99613.66;4950632;29;20197;-73
2021/11/30 10:31:35;;;;;;;14.67;3.03;;;;;;;7.32;84.25;99620.63;4952276;28;20209;-73
2021/11/30 10:34:13;;;;;;;14.87;3.10;;;;;;;7.39;82.11;99616.47;4952385;28;20177;-73
2021/11/30 10:37:09;;;;;;;15.17;2.93;;;;;;;7.47;82.24;99623.34;4951815;28;20659;-73
2021/11/30 10:39:38;;;;;;;14.83;2.27;;;;;;;7.48;81.76;99625.09;4952243;28;20178;-72
2021/11/30 10:42:24;;;;;;;12.90;3.27;;;;;;;7.39;81.38;99617.34;4967511;28;20336;-72
2021/11/30 10:44:53;;;;;;;16.57;2.63;;;;;;;7.31;81.25;99643.50;4952373;28;20181;-72
2021/11/30 10:47:21;;;;;;;18.13;2.63;;;;;;;7.24;81.16;99637.47;4951920;28;20228;-73
2021/11/30 10:49:56;;;;;;;21.03;3.67;;;;;;;7.23;82.59;99623.06;4966803;28;20682;-72
2021/11/30 10:52:25;;;;;;;16.60;3.13;;;;;;;7.26;80.91;99609.50;4952259;28;20674;-73
2021/11/30 10:55:05;;;;;;;19.73;3.20;;;;;;;7.27;81.06;99621.44;4966858;28;20664;-73
2021/11/30 10:57:32;;;;;;;17.77;3.63;;;;;;;7.29;80.78;99640.09;4952388;28;20177;-73
2021/11/30 11:00:14;;;;;;;19.43;3.90;;;;;;;7.23;81.06;99640.88;4951960;28;20189;-73
2021/11/30 11:02:50;;;;;;;22.27;3.30;;;;;;;7.25;80.02;99640.91;4966862;28;20220;-72
2021/11/30 11:05:28;;;;;;;16.90;3.57;;;;;;;7.38;77.91;99622.41;4951573;28;20689;-72
2021/11/30 11:08:07;;;;;;;19.57;4.00;;;;;;;7.73;75.70;99639.78;4951815;28;20684;-73
2021/11/30 11:10:35;;;;;;;19.67;4.30;;;;;;;7.75;74.91;99650.88;4951866;28;20292;-72
2021/11/30 11:13:16;;;;;;;16.37;3.73;;;;;;;7.59;75.69;99648.97;4951773;28;20264;-72
2021/11/30 11:15:42;;;;;;;22.77;4.37;;;;;;;7.50;76.11;99653.09;4951387;28;20181;-72
2021/11/30 11:18:29;;;;;;;18.33;4.53;;;;;;;7.45;77.04;99663.22;4951159;29;20531;-73
2021/11/30 11:21:19;;;;;;;18.57;3.37;;;;;;;7.43;77.04;99670.00;4951540;28;20212;-73
2021/11/30 11:24:07;;;;;;;21.03;4.17;;;;;;;7.41;75.72;99665.72;4948087;28;20264;-73
2021/11/30 11:26:34;;;;;;;20.60;3.83;;;;;;;7.37;74.15;99659.72;4948037;28;20200;-73
2021/11/30 11:29:04;;;;;;;21.03;3.77;;;;;;;7.29;75.81;99674.06;4951239;29;20777;-72
2021/11/30 11:31:30;;;;;;;24.47;4.33;;;;;;;7.28;74.97;99663.84;4951414;28;20212;-72
2021/11/30 11:33:58;;;;;;;19.57;3.90;;;;;;;7.28;73.89;99640.94;4951140;28;20208;-72
2021/11/30 11:36:24;;;;;;;19.80;3.63;;;;;;;7.34;75.27;99664.81;4951622;29;20272;-72
2021/11/30 11:38:50;;;;;;;18.20;3.70;;;;;;;7.37;74.20;99653.78;4949974;29;20192;-72
2021/11/30 11:41:16;;;;;;;19.93;4.33;;;;;;;7.42;71.90;99654.72;4950005;29;20213;-72